sensor_id;sensor_type;location;lat;lon;timestamp;P1;durP1;ratioP1;P2;durP2;ratioP2
11398;SDS011;5755;48.116;11.608;2023-01-04T00:01:32;8.50;;;6.73;;
11398;SDS011;5755;48.116;11.608;2023-01-04T00:03:59;7.97;;;6.80;;
11398;SDS011;5755;48.116;11.608;2023-01-04T00:06:26;9.70;;;7.13;;
11398;SDS011;5755;48.116;11.608;2023-01-04T00:08:53;10.53;;;6.80;;
11398;SDS011;5755;48.116;11.608;2023-01-04T00:11:20;9.97;;;7.37;;
11398;SDS011;5755;48.116;11.608;2023-01-04T00:13:49;7.27;;;6.53;;
11398;SDS011;5755;48.116;11.608;2023-01-04T00:16:19;6.93;;;6.23;;
11398;SDS011;5755;48.116;11.608;2023-01-04T00:18:47;7.80;;;6.00;;
11398;SDS011;5755;48.116;11.608;2023-01-04T00:21:15;10.10;;;6.70;;
11398;SDS011;5755;48.116;11.608;2023-01-04T00:23:43;7.33;;;6.07;;
11398;SDS011;5755;48.116;11.608;2023-01-04T00:26:12;9.30;;;6.87;;
11398;SDS011;5755;48.116;11.608;2023-01-04T00:28:40;10.10;;;7.13;;
11398;SDS011;5755;48.116;11.608;2023-01-04T00:31:08;8.27;;;7.20;;
11398;SDS011;5755;48.116;11.608;2023-01-04T00:33:38;10.60;;;7.10;;
11398;SDS011;5755;48.116;11.608;2023-01-04T00:36:06;11.83;;;7.60;;
11398;SDS011;5755;48.116;11.608;2023-01-04T00:38:34;9.53;;;7.33;;
11398;SDS011;5755;48.116;11.608;2023-01-04T00:41:01;10.43;;;7.80;;
11398;SDS011;5755;48.116;11.608;2023-01-04T00:43:29;11.67;;;8.17;;
11398;SDS011;5755;48.116;11.608;2023-01-04T00:45:56;10.27;;;8.03;;
11398;SDS011;5755;48.116;11.608;2023-01-04T00:48:25;12.27;;;7.67;;
11398;SDS011;5755;48.116;11.608;2023-01-04T00:50:53;10.60;;;7.57;;
11398;SDS011;5755;48.116;11.608;2023-01-04T00:53:20;9.03;;;6.93;;
11398;SDS011;5755;48.116;11.608;2023-01-04T00:55:47;11.27;;;7.67;;
11398;SDS011;5755;48.116;11.608;2023-01-04T00:58:14;9.57;;;7.27;;
11398;SDS011;5755;48.116;11.608;2023-01-04T01:00:41;10.33;;;7.77;;
11398;SDS011;5755;48.116;11.608;2023-01-04T01:03:18;10.17;;;7.17;;
11398;SDS011;5755;48.116;11.608;2023-01-04T01:05:44;9.93;;;7.47;;
11398;SDS011;5755;48.116;11.608;2023-01-04T01:08:13;9.47;;;7.30;;
11398;SDS011;5755;48.116;11.608;2023-01-04T01:10:51;10.47;;;7.07;;
11398;SDS011;5755;48.116;11.608;2023-01-04T01:13:19;10.63;;;7.47;;
11398;SDS011;5755;48.116;11.608;2023-01-04T01:15:46;8.90;;;6.60;;
11398;SDS011;5755;48.116;11.608;2023-01-04T01:18:13;9.83;;;6.80;;
11398;SDS011;5755;48.116;11.608;2023-01-04T01:20:41;8.53;;;6.73;;
11398;SDS011;5755;48.116;11.608;2023-01-04T01:23:09;9.20;;;6.97;;
11398;SDS011;5755;48.116;11.608;2023-01-04T01:25:39;7.53;;;6.27;;
11398;SDS011;5755;48.116;11.608;2023-01-04T01:28:06;7.53;;;6.27;;
11398;SDS011;5755;48.116;11.608;2023-01-04T01:30:33;8.00;;;6.10;;
11398;SDS011;5755;48.116;11.608;2023-01-04T01:33:04;11.13;;;7.10;;
11398;SDS011;5755;48.116;11.608;2023-01-04T01:35:31;9.77;;;7.23;;
11398;SDS011;5755;48.116;11.608;2023-01-04T01:37:58;7.87;;;6.23;;
11398;SDS011;5755;48.116;11.608;2023-01-04T01:40:25;8.27;;;6.30;;
11398;SDS011;5755;48.116;11.608;2023-01-04T01:42:54;7.13;;;5.73;;
11398;SDS011;5755;48.116;11.608;2023-01-04T01:45:21;9.27;;;5.73;;
11398;SDS011;5755;48.116;11.608;2023-01-04T01:47:53;6.80;;;5.63;;
11398;SDS011;5755;48.116;11.608;2023-01-04T01:50:25;7.73;;;6.17;;
11398;SDS011;5755;48.116;11.608;2023-01-04T01:52:54;8.50;;;6.30;;
11398;SDS011;5755;48.116;11.608;2023-01-04T01:55:24;7.27;;;5.70;;
11398;SDS011;5755;48.116;11.608;2023-01-04T01:57:51;7.27;;;5.63;;
11398;SDS011;5755;48.116;11.608;2023-01-04T02:00:21;7.33;;;6.07;;
11398;SDS011;5755;48.116;11.608;2023-01-04T02:02:50;8.60;;;5.80;;
11398;SDS011;5755;48.116;11.608;2023-01-04T02:12:09;7.87;;;6.33;;
11398;SDS011;5755;48.116;11.608;2023-01-04T02:14:38;7.87;;;6.47;;
11398;SDS011;5755;48.116;11.608;2023-01-04T02:17:10;8.07;;;5.70;;
11398;SDS011;5755;48.116;11.608;2023-01-04T02:19:46;8.77;;;6.70;;
11398;SDS011;5755;48.116;11.608;2023-01-04T02:22:41;9.33;;;6.27;;
11398;SDS011;5755;48.116;11.608;2023-01-04T02:28:54;9.63;;;6.80;;
11398;SDS011;5755;48.116;11.608;2023-01-04T02:31:37;9.17;;;6.50;;
11398;SDS011;5755;48.116;11.608;2023-01-04T02:34:07;8.63;;;6.53;;
11398;SDS011;5755;48.116;11.608;2023-01-04T02:36:42;9.37;;;7.50;;
11398;SDS011;5755;48.116;11.608;2023-01-04T02:39:17;10.17;;;7.73;;
11398;SDS011;5755;48.116;11.608;2023-01-04T02:41:53;7.83;;;6.83;;
11398;SDS011;5755;48.116;11.608;2023-01-04T02:44:26;9.83;;;7.57;;
11398;SDS011;5755;48.116;11.608;2023-01-04T02:47:17;10.10;;;8.10;;
11398;SDS011;5755;48.116;11.608;2023-01-04T02:50:22;9.73;;;8.07;;
11398;SDS011;5755;48.116;11.608;2023-01-04T02:52:55;9.67;;;7.57;;
11398;SDS011;5755;48.116;11.608;2023-01-04T02:55:23;9.33;;;7.90;;
11398;SDS011;5755;48.116;11.608;2023-01-04T02:57:57;10.10;;;8.03;;
11398;SDS011;5755;48.116;11.608;2023-01-04T03:00:32;9.33;;;7.67;;
11398;SDS011;5755;48.116;11.608;2023-01-04T03:03:26;9.80;;;8.10;;
11398;SDS011;5755;48.116;11.608;2023-01-04T03:06:20;9.27;;;7.17;;
11398;SDS011;5755;48.116;11.608;2023-01-04T03:08:55;12.07;;;7.80;;
11398;SDS011;5755;48.116;11.608;2023-01-04T03:11:30;9.13;;;7.03;;
11398;SDS011;5755;48.116;11.608;2023-01-04T03:14:23;9.13;;;7.13;;
11398;SDS011;5755;48.116;11.608;2023-01-04T03:16:53;8.83;;;7.30;;
11398;SDS011;5755;48.116;11.608;2023-01-04T03:19:22;8.87;;;7.20;;
11398;SDS011;5755;48.116;11.608;2023-01-04T03:22:04;9.83;;;7.47;;
11398;SDS011;5755;48.116;11.608;2023-01-04T03:24:53;8.53;;;7.20;;
11398;SDS011;5755;48.116;11.608;2023-01-04T03:27:38;10.13;;;7.77;;
11398;SDS011;5755;48.116;11.608;2023-01-04T03:30:25;9.17;;;7.37;;
11398;SDS011;5755;48.116;11.608;2023-01-04T03:33:12;9.23;;;7.37;;
11398;SDS011;5755;48.116;11.608;2023-01-04T03:36:02;9.90;;;8.03;;
11398;SDS011;5755;48.116;11.608;2023-01-04T03:38:38;10.13;;;8.23;;
11398;SDS011;5755;48.116;11.608;2023-01-04T03:41:28;10.63;;;8.70;;
11398;SDS011;5755;48.116;11.608;2023-01-04T03:44:19;10.80;;;8.63;;
11398;SDS011;5755;48.116;11.608;2023-01-04T03:47:12;11.47;;;8.40;;
11398;SDS011;5755;48.116;11.608;2023-01-04T03:50:03;11.87;;;8.77;;
11398;SDS011;5755;48.116;11.608;2023-01-04T03:52:37;10.93;;;9.00;;
11398;SDS011;5755;48.116;11.608;2023-01-04T03:55:07;10.43;;;8.33;;
11398;SDS011;5755;48.116;11.608;2023-01-04T03:57:35;9.37;;;7.83;;
11398;SDS011;5755;48.116;11.608;2023-01-04T04:00:04;12.93;;;8.07;;
11398;SDS011;5755;48.116;11.608;2023-01-04T04:02:35;9.20;;;8.00;;
11398;SDS011;5755;48.116;11.608;2023-01-04T04:05:02;10.17;;;8.47;;
11398;SDS011;5755;48.116;11.608;2023-01-04T04:07:49;10.40;;;8.13;;
11398;SDS011;5755;48.116;11.608;2023-01-04T04:10:33;10.93;;;7.87;;
11398;SDS011;5755;48.116;11.608;2023-01-04T04:13:00;8.60;;;7.60;;
11398;SDS011;5755;48.116;11.608;2023-01-04T04:15:27;10.00;;;8.17;;
11398;SDS011;5755;48.116;11.608;2023-01-04T04:17:54;8.97;;;7.30;;
11398;SDS011;5755;48.116;11.608;2023-01-04T04:20:20;10.17;;;7.70;;
11398;SDS011;5755;48.116;11.608;2023-01-04T04:22:48;9.23;;;7.40;;
11398;SDS011;5755;48.116;11.608;2023-01-04T04:25:15;8.83;;;7.60;;
11398;SDS011;5755;48.116;11.608;2023-01-04T04:27:42;8.00;;;6.73;;
11398;SDS011;5755;48.116;11.608;2023-01-04T04:30:09;7.90;;;6.53;;
11398;SDS011;5755;48.116;11.608;2023-01-04T04:32:36;7.50;;;6.40;;
11398;SDS011;5755;48.116;11.608;2023-01-04T04:35:03;7.77;;;6.17;;
11398;SDS011;5755;48.116;11.608;2023-01-04T04:37:30;8.57;;;5.70;;
11398;SDS011;5755;48.116;11.608;2023-01-04T04:39:59;6.93;;;5.70;;
11398;SDS011;5755;48.116;11.608;2023-01-04T04:42:26;5.90;;;5.07;;
11398;SDS011;5755;48.116;11.608;2023-01-04T04:44:52;5.97;;;4.80;;
11398;SDS011;5755;48.116;11.608;2023-01-04T04:47:18;7.20;;;5.37;;
11398;SDS011;5755;48.116;11.608;2023-01-04T04:49:45;5.97;;;5.33;;
11398;SDS011;5755;48.116;11.608;2023-01-04T04:52:12;6.07;;;5.23;;
11398;SDS011;5755;48.116;11.608;2023-01-04T04:54:39;5.60;;;5.00;;
11398;SDS011;5755;48.116;11.608;2023-01-04T04:57:07;5.83;;;5.00;;
11398;SDS011;5755;48.116;11.608;2023-01-04T04:59:34;6.27;;;5.00;;
11398;SDS011;5755;48.116;11.608;2023-01-04T05:02:01;6.30;;;5.40;;
11398;SDS011;5755;48.116;11.608;2023-01-04T05:04:28;6.03;;;5.20;;
11398;SDS011;5755;48.116;11.608;2023-01-04T05:06:55;6.87;;;5.30;;
11398;SDS011;5755;48.116;11.608;2023-01-04T05:09:21;6.50;;;5.37;;
11398;SDS011;5755;48.116;11.608;2023-01-04T05:11:48;5.93;;;5.33;;
11398;SDS011;5755;48.116;11.608;2023-01-04T05:14:34;6.53;;;4.83;;
11398;SDS011;5755;48.116;11.608;2023-01-04T05:17:01;6.10;;;5.13;;
11398;SDS011;5755;48.116;11.608;2023-01-04T05:19:27;5.20;;;4.70;;
11398;SDS011;5755;48.116;11.608;2023-01-04T05:21:54;5.37;;;4.63;;
11398;SDS011;5755;48.116;11.608;2023-01-04T05:24:21;5.10;;;4.40;;
11398;SDS011;5755;48.116;11.608;2023-01-04T05:26:48;6.07;;;4.83;;
11398;SDS011;5755;48.116;11.608;2023-01-04T05:29:15;5.00;;;4.20;;
11398;SDS011;5755;48.116;11.608;2023-01-04T05:31:57;5.60;;;4.67;;
11398;SDS011;5755;48.116;11.608;2023-01-04T05:34:23;5.10;;;4.47;;
11398;SDS011;5755;48.116;11.608;2023-01-04T05:36:50;4.90;;;4.40;;
11398;SDS011;5755;48.116;11.608;2023-01-04T05:39:17;5.03;;;4.47;;
11398;SDS011;5755;48.116;11.608;2023-01-04T05:41:44;4.70;;;4.10;;
11398;SDS011;5755;48.116;11.608;2023-01-04T05:44:28;6.43;;;4.43;;
11398;SDS011;5755;48.116;11.608;2023-01-04T05:46:56;4.70;;;4.17;;
11398;SDS011;5755;48.116;11.608;2023-01-04T05:49:23;5.13;;;4.27;;
11398;SDS011;5755;48.116;11.608;2023-01-04T05:51:50;7.50;;;4.10;;
11398;SDS011;5755;48.116;11.608;2023-01-04T05:54:17;4.93;;;4.40;;
11398;SDS011;5755;48.116;11.608;2023-01-04T05:56:44;4.70;;;4.10;;
11398;SDS011;5755;48.116;11.608;2023-01-04T05:59:10;4.70;;;4.23;;
11398;SDS011;5755;48.116;11.608;2023-01-04T06:01:37;4.50;;;3.90;;
11398;SDS011;5755;48.116;11.608;2023-01-04T06:04:06;4.83;;;4.10;;
11398;SDS011;5755;48.116;11.608;2023-01-04T06:06:32;4.40;;;4.00;;
11398;SDS011;5755;48.116;11.608;2023-01-04T06:08:59;4.63;;;4.20;;
11398;SDS011;5755;48.116;11.608;2023-01-04T06:11:26;4.17;;;3.77;;
11398;SDS011;5755;48.116;11.608;2023-01-04T06:13:53;4.37;;;3.90;;
11398;SDS011;5755;48.116;11.608;2023-01-04T06:16:19;5.10;;;3.83;;
11398;SDS011;5755;48.116;11.608;2023-01-04T06:18:46;4.20;;;3.80;;
11398;SDS011;5755;48.116;11.608;2023-01-04T06:21:14;3.97;;;3.57;;
11398;SDS011;5755;48.116;11.608;2023-01-04T06:23:41;4.27;;;3.87;;
11398;SDS011;5755;48.116;11.608;2023-01-04T06:26:08;4.13;;;3.73;;
11398;SDS011;5755;48.116;11.608;2023-01-04T06:28:35;3.83;;;3.30;;
11398;SDS011;5755;48.116;11.608;2023-01-04T06:31:02;4.03;;;3.40;;
11398;SDS011;5755;48.116;11.608;2023-01-04T06:33:30;3.50;;;3.20;;
11398;SDS011;5755;48.116;11.608;2023-01-04T06:35:57;3.00;;;2.70;;
11398;SDS011;5755;48.116;11.608;2023-01-04T06:38:26;3.57;;;3.00;;
11398;SDS011;5755;48.116;11.608;2023-01-04T06:40:53;3.60;;;3.00;;
11398;SDS011;5755;48.116;11.608;2023-01-04T06:43:20;3.30;;;2.90;;
11398;SDS011;5755;48.116;11.608;2023-01-04T06:45:46;3.00;;;2.70;;
11398;SDS011;5755;48.116;11.608;2023-01-04T06:48:13;3.17;;;2.83;;
11398;SDS011;5755;48.116;11.608;2023-01-04T06:50:40;2.93;;;2.57;;
11398;SDS011;5755;48.116;11.608;2023-01-04T06:53:07;2.60;;;2.40;;
11398;SDS011;5755;48.116;11.608;2023-01-04T06:55:35;2.90;;;2.50;;
11398;SDS011;5755;48.116;11.608;2023-01-04T06:58:02;2.70;;;2.50;;
11398;SDS011;5755;48.116;11.608;2023-01-04T07:00:29;2.73;;;2.53;;
11398;SDS011;5755;48.116;11.608;2023-01-04T07:02:56;2.90;;;2.60;;
11398;SDS011;5755;48.116;11.608;2023-01-04T07:05:23;3.03;;;2.73;;
11398;SDS011;5755;48.116;11.608;2023-01-04T07:07:49;2.80;;;2.60;;
11398;SDS011;5755;48.116;11.608;2023-01-04T07:10:16;3.10;;;2.80;;
11398;SDS011;5755;48.116;11.608;2023-01-04T07:12:44;3.30;;;3.00;;
11398;SDS011;5755;48.116;11.608;2023-01-04T07:15:11;3.30;;;3.00;;
11398;SDS011;5755;48.116;11.608;2023-01-04T07:17:38;2.90;;;2.67;;
11398;SDS011;5755;48.116;11.608;2023-01-04T07:20:05;2.60;;;2.40;;
11398;SDS011;5755;48.116;11.608;2023-01-04T07:22:32;2.73;;;2.50;;
11398;SDS011;5755;48.116;11.608;2023-01-04T07:24:59;3.40;;;2.90;;
11398;SDS011;5755;48.116;11.608;2023-01-04T07:27:26;2.60;;;2.40;;
11398;SDS011;5755;48.116;11.608;2023-01-04T07:29:54;2.70;;;2.50;;
11398;SDS011;5755;48.116;11.608;2023-01-04T07:32:21;3.23;;;2.70;;
11398;SDS011;5755;48.116;11.608;2023-01-04T07:34:48;3.80;;;2.63;;
11398;SDS011;5755;48.116;11.608;2023-01-04T07:37:15;3.53;;;2.53;;
11398;SDS011;5755;48.116;11.608;2023-01-04T07:39:42;3.10;;;2.80;;
11398;SDS011;5755;48.116;11.608;2023-01-04T07:42:09;2.90;;;2.60;;
11398;SDS011;5755;48.116;11.608;2023-01-04T07:44:36;2.73;;;2.53;;
11398;SDS011;5755;48.116;11.608;2023-01-04T07:47:05;3.63;;;3.03;;
11398;SDS011;5755;48.116;11.608;2023-01-04T07:49:31;3.37;;;3.07;;
11398;SDS011;5755;48.116;11.608;2023-01-04T07:51:58;3.37;;;3.07;;
11398;SDS011;5755;48.116;11.608;2023-01-04T07:54:25;3.87;;;3.10;;
11398;SDS011;5755;48.116;11.608;2023-01-04T07:56:52;2.90;;;2.60;;
11398;SDS011;5755;48.116;11.608;2023-01-04T07:59:19;4.07;;;3.10;;
11398;SDS011;5755;48.116;11.608;2023-01-04T08:01:46;3.17;;;2.77;;
11398;SDS011;5755;48.116;11.608;2023-01-04T08:04:16;3.20;;;2.80;;
11398;SDS011;5755;48.116;11.608;2023-01-04T08:06:43;2.97;;;2.67;;
11398;SDS011;5755;48.116;11.608;2023-01-04T08:09:11;2.70;;;2.50;;
11398;SDS011;5755;48.116;11.608;2023-01-04T08:11:38;2.73;;;2.53;;
11398;SDS011;5755;48.116;11.608;2023-01-04T08:14:04;2.70;;;2.50;;
11398;SDS011;5755;48.116;11.608;2023-01-04T08:16:32;2.63;;;2.40;;
11398;SDS011;5755;48.116;11.608;2023-01-04T08:19:00;2.33;;;2.13;;
11398;SDS011;5755;48.116;11.608;2023-01-04T08:21:31;2.40;;;2.20;;
11398;SDS011;5755;48.116;11.608;2023-01-04T08:23:59;2.60;;;2.20;;
11398;SDS011;5755;48.116;11.608;2023-01-04T08:26:27;2.77;;;2.20;;
11398;SDS011;5755;48.116;11.608;2023-01-04T08:28:54;2.20;;;2.00;;
11398;SDS011;5755;48.116;11.608;2023-01-04T08:31:22;2.40;;;2.20;;
11398;SDS011;5755;48.116;11.608;2023-01-04T08:33:50;2.30;;;2.10;;
11398;SDS011;5755;48.116;11.608;2023-01-04T08:36:18;2.10;;;1.90;;
11398;SDS011;5755;48.116;11.608;2023-01-04T08:38:47;2.03;;;1.87;;
11398;SDS011;5755;48.116;11.608;2023-01-04T08:41:15;2.30;;;2.10;;
11398;SDS011;5755;48.116;11.608;2023-01-04T08:43:43;2.20;;;2.00;;
11398;SDS011;5755;48.116;11.608;2023-01-04T08:46:10;2.17;;;1.97;;
11398;SDS011;5755;48.116;11.608;2023-01-04T08:48:38;2.80;;;2.60;;
11398;SDS011;5755;48.116;11.608;2023-01-04T08:51:07;3.20;;;2.77;;
11398;SDS011;5755;48.116;11.608;2023-01-04T08:53:36;2.15;;;1.95;;
11398;SDS011;5755;48.116;11.608;2023-01-04T08:56:05;2.20;;;2.00;;
11398;SDS011;5755;48.116;11.608;2023-01-04T08:58:33;1.80;;;1.67;;
11398;SDS011;5755;48.116;11.608;2023-01-04T09:01:01;2.25;;;1.85;;
11398;SDS011;5755;48.116;11.608;2023-01-04T09:03:30;2.47;;;2.28;;
11398;SDS011;5755;48.116;11.608;2023-01-04T09:06:01;2.33;;;2.13;;
11398;SDS011;5755;48.116;11.608;2023-01-04T09:08:29;2.92;;;2.22;;
11398;SDS011;5755;48.116;11.608;2023-01-04T09:10:56;1.70;;;1.60;;
11398;SDS011;5755;48.116;11.608;2023-01-04T09:13:25;1.90;;;1.80;;
11398;SDS011;5755;48.116;11.608;2023-01-04T09:15:52;1.60;;;1.50;;
11398;SDS011;5755;48.116;11.608;2023-01-04T09:18:19;2.55;;;2.35;;
11398;SDS011;5755;48.116;11.608;2023-01-04T09:20:48;2.00;;;1.90;;
11398;SDS011;5755;48.116;11.608;2023-01-04T09:23:27;4.32;;;1.90;;
11398;SDS011;5755;48.116;11.608;2023-01-04T09:28:59;2.08;;;1.88;;
11398;SDS011;5755;48.116;11.608;2023-01-04T09:31:27;2.00;;;1.90;;
11398;SDS011;5755;48.116;11.608;2023-01-04T09:33:54;2.13;;;1.92;;
11398;SDS011;5755;48.116;11.608;2023-01-04T09:36:22;1.95;;;1.85;;
11398;SDS011;5755;48.116;11.608;2023-01-04T09:38:49;2.00;;;1.80;;
11398;SDS011;5755;48.116;11.608;2023-01-04T09:41:19;2.25;;;2.05;;
11398;SDS011;5755;48.116;11.608;2023-01-04T09:43:51;2.10;;;1.90;;
11398;SDS011;5755;48.116;11.608;2023-01-04T09:46:23;1.90;;;1.80;;
11398;SDS011;5755;48.116;11.608;2023-01-04T09:48:55;10.57;;;9.15;;
11398;SDS011;5755;48.116;11.608;2023-01-04T09:51:31;2.03;;;1.90;;
11398;SDS011;5755;48.116;11.608;2023-01-04T09:54:03;1.95;;;1.85;;
11398;SDS011;5755;48.116;11.608;2023-01-04T09:56:36;1.60;;;1.50;;
11398;SDS011;5755;48.116;11.608;2023-01-04T09:59:06;2.10;;;1.90;;
11398;SDS011;5755;48.116;11.608;2023-01-04T10:01:40;1.85;;;1.70;;
11398;SDS011;5755;48.116;11.608;2023-01-04T10:04:12;1.98;;;1.80;;
11398;SDS011;5755;48.116;11.608;2023-01-04T10:06:44;2.97;;;2.20;;
11398;SDS011;5755;48.116;11.608;2023-01-04T10:09:11;1.90;;;1.55;;
11398;SDS011;5755;48.116;11.608;2023-01-04T10:11:44;1.70;;;1.60;;
11398;SDS011;5755;48.116;11.608;2023-01-04T10:14:34;1.80;;;1.70;;
11398;SDS011;5755;48.116;11.608;2023-01-04T10:17:16;1.67;;;1.50;;
11398;SDS011;5755;48.116;11.608;2023-01-04T10:19:57;1.67;;;1.58;;
11398;SDS011;5755;48.116;11.608;2023-01-04T10:22:39;2.03;;;1.58;;
11398;SDS011;5755;48.116;11.608;2023-01-04T10:25:17;1.60;;;1.50;;
11398;SDS011;5755;48.116;11.608;2023-01-04T10:27:52;1.80;;;1.60;;
11398;SDS011;5755;48.116;11.608;2023-01-04T10:30:37;1.63;;;1.50;;
11398;SDS011;5755;48.116;11.608;2023-01-04T10:33:11;2.50;;;1.50;;
11398;SDS011;5755;48.116;11.608;2023-01-04T10:35:40;2.05;;;1.30;;
11398;SDS011;5755;48.116;11.608;2023-01-04T10:38:11;1.50;;;1.40;;
11398;SDS011;5755;48.116;11.608;2023-01-04T10:40:43;1.70;;;1.40;;
11398;SDS011;5755;48.116;11.608;2023-01-04T10:43:14;2.03;;;1.70;;
11398;SDS011;5755;48.116;11.608;2023-01-04T10:45:48;4.35;;;3.58;;
11398;SDS011;5755;48.116;11.608;2023-01-04T10:48:21;1.70;;;1.48;;
11398;SDS011;5755;48.116;11.608;2023-01-04T10:50:56;2.20;;;2.00;;
11398;SDS011;5755;48.116;11.608;2023-01-04T10:53:25;1.67;;;1.30;;
11398;SDS011;5755;48.116;11.608;2023-01-04T10:55:56;1.30;;;1.20;;
11398;SDS011;5755;48.116;11.608;2023-01-04T10:58:28;1.33;;;1.20;;
11398;SDS011;5755;48.116;11.608;2023-01-04T11:01:01;6.78;;;5.40;;
11398;SDS011;5755;48.116;11.608;2023-01-04T11:03:34;1.65;;;1.08;;
11398;SDS011;5755;48.116;11.608;2023-01-04T11:06:06;1.70;;;1.60;;
11398;SDS011;5755;48.116;11.608;2023-01-04T11:08:41;1.48;;;1.30;;
11398;SDS011;5755;48.116;11.608;2023-01-04T11:11:13;2.33;;;1.60;;
11398;SDS011;5755;48.116;11.608;2023-01-04T11:13:44;1.30;;;1.20;;
11398;SDS011;5755;48.116;11.608;2023-01-04T11:16:11;1.30;;;0.93;;
11398;SDS011;5755;48.116;11.608;2023-01-04T11:18:39;1.10;;;1.00;;
11398;SDS011;5755;48.116;11.608;2023-01-04T11:21:09;1.20;;;1.10;;
11398;SDS011;5755;48.116;11.608;2023-01-04T11:23:38;1.30;;;1.20;;
11398;SDS011;5755;48.116;11.608;2023-01-04T11:26:06;1.40;;;1.30;;
11398;SDS011;5755;48.116;11.608;2023-01-04T11:28:38;3.40;;;1.08;;
11398;SDS011;5755;48.116;11.608;2023-01-04T11:31:11;1.35;;;1.10;;
11398;SDS011;5755;48.116;11.608;2023-01-04T11:33:53;1.00;;;0.90;;
11398;SDS011;5755;48.116;11.608;2023-01-04T11:36:31;1.23;;;1.13;;
11398;SDS011;5755;48.116;11.608;2023-01-04T11:39:00;1.75;;;1.20;;
11398;SDS011;5755;48.116;11.608;2023-01-04T11:41:29;1.38;;;1.27;;
11398;SDS011;5755;48.116;11.608;2023-01-04T11:43:57;2.28;;;1.13;;
11398;SDS011;5755;48.116;11.608;2023-01-04T11:46:25;1.40;;;1.23;;
11398;SDS011;5755;48.116;11.608;2023-01-04T11:48:54;1.55;;;1.38;;
11398;SDS011;5755;48.116;11.608;2023-01-04T11:51:34;4.60;;;3.70;;
11398;SDS011;5755;48.116;11.608;2023-01-04T11:54:05;1.55;;;1.45;;
11398;SDS011;5755;48.116;11.608;2023-01-04T11:56:56;1.80;;;1.30;;
11398;SDS011;5755;48.116;11.608;2023-01-04T11:59:24;3.10;;;1.17;;
11398;SDS011;5755;48.116;11.608;2023-01-04T12:02:09;1.20;;;1.10;;
11398;SDS011;5755;48.116;11.608;2023-01-04T12:04:46;1.30;;;1.20;;
11398;SDS011;5755;48.116;11.608;2023-01-04T12:07:17;1.65;;;1.33;;
11398;SDS011;5755;48.116;11.608;2023-01-04T12:09:51;1.48;;;1.20;;
11398;SDS011;5755;48.116;11.608;2023-01-04T12:12:18;1.15;;;1.05;;
11398;SDS011;5755;48.116;11.608;2023-01-04T12:14:46;1.55;;;1.20;;
11398;SDS011;5755;48.116;11.608;2023-01-04T12:17:15;1.38;;;1.25;;
11398;SDS011;5755;48.116;11.608;2023-01-04T12:19:48;6.07;;;4.13;;
11398;SDS011;5755;48.116;11.608;2023-01-04T12:22:20;1.30;;;1.17;;
11398;SDS011;5755;48.116;11.608;2023-01-04T12:24:50;1.13;;;1.02;;
11398;SDS011;5755;48.116;11.608;2023-01-04T12:27:18;0.90;;;0.88;;
11398;SDS011;5755;48.116;11.608;2023-01-04T12:29:52;1.30;;;1.13;;
11398;SDS011;5755;48.116;11.608;2023-01-04T12:32:41;0.80;;;0.80;;
11398;SDS011;5755;48.116;11.608;2023-01-04T12:47:47;1.52;;;1.20;;
11398;SDS011;5755;48.116;11.608;2023-01-04T12:53:49;1.95;;;1.20;;
11398;SDS011;5755;48.116;11.608;2023-01-04T12:56:17;3.00;;;1.25;;
11398;SDS011;5755;48.116;11.608;2023-01-04T13:01:35;1.70;;;1.60;;
11398;SDS011;5755;48.116;11.608;2023-01-04T13:04:26;2.45;;;1.80;;
11398;SDS011;5755;48.116;11.608;2023-01-04T13:06:54;2.22;;;1.45;;
11398;SDS011;5755;48.116;11.608;2023-01-04T13:09:38;2.05;;;1.80;;
11398;SDS011;5755;48.116;11.608;2023-01-04T13:12:23;7.75;;;4.70;;
11398;SDS011;5755;48.116;11.608;2023-01-04T13:15:11;1.63;;;1.52;;
11398;SDS011;5755;48.116;11.608;2023-01-04T13:17:44;3.35;;;1.45;;
11398;SDS011;5755;48.116;11.608;2023-01-04T13:20:14;1.30;;;1.20;;
11398;SDS011;5755;48.116;11.608;2023-01-04T13:22:45;1.30;;;1.20;;
11398;SDS011;5755;48.116;11.608;2023-01-04T13:25:16;1.65;;;1.45;;
11398;SDS011;5755;48.116;11.608;2023-01-04T13:27:55;2.17;;;1.25;;
11398;SDS011;5755;48.116;11.608;2023-01-04T13:30:32;1.83;;;1.23;;
11398;SDS011;5755;48.116;11.608;2023-01-04T13:33:07;2.53;;;1.40;;
11398;SDS011;5755;48.116;11.608;2023-01-04T13:35:39;0.98;;;0.80;;
11398;SDS011;5755;48.116;11.608;2023-01-04T13:38:10;1.00;;;0.80;;
11398;SDS011;5755;48.116;11.608;2023-01-04T13:40:42;0.98;;;0.75;;
11398;SDS011;5755;48.116;11.608;2023-01-04T13:43:18;1.60;;;1.42;;
11398;SDS011;5755;48.116;11.608;2023-01-04T13:46:13;2.95;;;2.25;;
11398;SDS011;5755;48.116;11.608;2023-01-04T13:48:42;2.42;;;1.00;;
11398;SDS011;5755;48.116;11.608;2023-01-04T13:51:13;1.20;;;1.10;;
11398;SDS011;5755;48.116;11.608;2023-01-04T13:53:49;0.90;;;0.80;;
11398;SDS011;5755;48.116;11.608;2023-01-04T13:56:18;0.70;;;0.70;;
11398;SDS011;5755;48.116;11.608;2023-01-04T13:58:46;1.38;;;0.80;;
11398;SDS011;5755;48.116;11.608;2023-01-04T14:01:16;1.10;;;1.00;;
11398;SDS011;5755;48.116;11.608;2023-01-04T14:03:46;5.93;;;2.45;;
11398;SDS011;5755;48.116;11.608;2023-01-04T14:06:18;0.73;;;0.70;;
11398;SDS011;5755;48.116;11.608;2023-01-04T14:08:49;0.90;;;0.80;;
11398;SDS011;5755;48.116;11.608;2023-01-04T14:11:21;0.77;;;0.77;;
11398;SDS011;5755;48.116;11.608;2023-01-04T14:14:14;2.55;;;1.70;;
11398;SDS011;5755;48.116;11.608;2023-01-04T14:16:47;1.23;;;1.13;;
11398;SDS011;5755;48.116;11.608;2023-01-04T14:19:37;1.10;;;1.00;;
11398;SDS011;5755;48.116;11.608;2023-01-04T14:28:18;0.80;;;0.80;;
11398;SDS011;5755;48.116;11.608;2023-01-04T14:30:54;0.98;;;0.80;;
11398;SDS011;5755;48.116;11.608;2023-01-04T14:33:40;0.60;;;0.60;;
11398;SDS011;5755;48.116;11.608;2023-01-04T14:36:10;1.10;;;0.80;;
11398;SDS011;5755;48.116;11.608;2023-01-04T14:38:39;0.80;;;0.80;;
11398;SDS011;5755;48.116;11.608;2023-01-04T14:41:09;1.65;;;1.08;;
11398;SDS011;5755;48.116;11.608;2023-01-04T14:43:44;0.65;;;0.65;;
11398;SDS011;5755;48.116;11.608;2023-01-04T14:46:12;1.02;;;0.80;;
11398;SDS011;5755;48.116;11.608;2023-01-04T14:48:41;2.92;;;0.90;;
11398;SDS011;5755;48.116;11.608;2023-01-04T14:51:09;0.88;;;0.88;;
11398;SDS011;5755;48.116;11.608;2023-01-04T14:53:40;0.70;;;0.70;;
11398;SDS011;5755;48.116;11.608;2023-01-04T14:56:08;0.77;;;0.70;;
11398;SDS011;5755;48.116;11.608;2023-01-04T14:58:37;0.90;;;0.80;;
11398;SDS011;5755;48.116;11.608;2023-01-04T15:01:04;1.10;;;0.77;;
11398;SDS011;5755;48.116;11.608;2023-01-04T15:03:31;1.10;;;0.63;;
11398;SDS011;5755;48.116;11.608;2023-01-04T15:05:59;0.77;;;0.65;;
11398;SDS011;5755;48.116;11.608;2023-01-04T15:08:26;0.85;;;0.85;;
11398;SDS011;5755;48.116;11.608;2023-01-04T15:10:53;2.53;;;2.15;;
11398;SDS011;5755;48.116;11.608;2023-01-04T15:13:20;0.90;;;0.77;;
11398;SDS011;5755;48.116;11.608;2023-01-04T15:15:46;0.93;;;0.70;;
11398;SDS011;5755;48.116;11.608;2023-01-04T15:18:15;3.85;;;0.95;;
11398;SDS011;5755;48.116;11.608;2023-01-04T15:20:42;0.65;;;0.60;;
11398;SDS011;5755;48.116;11.608;2023-01-04T15:23:10;0.70;;;0.70;;
11398;SDS011;5755;48.116;11.608;2023-01-04T15:25:37;0.95;;;0.55;;
11398;SDS011;5755;48.116;11.608;2023-01-04T15:28:05;0.70;;;0.70;;
11398;SDS011;5755;48.116;11.608;2023-01-04T15:30:32;0.60;;;0.60;;
11398;SDS011;5755;48.116;11.608;2023-01-04T15:32:59;0.63;;;0.60;;
11398;SDS011;5755;48.116;11.608;2023-01-04T15:35:26;2.38;;;0.80;;
11398;SDS011;5755;48.116;11.608;2023-01-04T15:37:52;0.60;;;0.60;;
11398;SDS011;5755;48.116;11.608;2023-01-04T15:40:21;1.13;;;0.82;;
11398;SDS011;5755;48.116;11.608;2023-01-04T15:42:48;0.88;;;0.75;;
11398;SDS011;5755;48.116;11.608;2023-01-04T15:45:23;0.70;;;0.70;;
11398;SDS011;5755;48.116;11.608;2023-01-04T15:47:50;1.52;;;0.80;;